x

Stonewall Bank - 20nm West Of Newport, Or (46050) Wave Buoy

3:50am - Mon 20th Oct 2014 All times are PDT. -7 hours from GMT.

  • Sig Wave height 12.1ft
  • Swell Direction
  • Peak Period 15s
  • Average Period 8s
  • Wind
    18mph, 22mph gusts
  • Sea Temp 60°f
  • Air Temp 59°f
  • Sea Pressure 1006.1mb
  • Stonewall Bank - 20nm West Of Newport, Or
  • Stonewall Bank - 20nm West Of Newport, Or

More Historic Weather Station data

Upgrade to MSW Pro to gain access to the past 30 days of data for over 8000 Wavebouys and Weather Stations around the globe.

Join Pro

Comparision Forecast

View Surf forecast
   
Mon 10/20 3:50am 12ft 15s 8s 18 22 mph 1006.1mb 60f 59f
2:50am 11.5ft 11s 8s 18 22 mph 1006.3mb 60f 59f
1:50am 11.5ft 16s 9s 18 22 mph 1006mb 60f 58f
12:50am 12.5ft 16s 9s 18 20 mph 1005.8mb 60f 58f
Sun 10/19 11:50pm 10ft 17s 8s 18 20 mph 1005.9mb 60f 58f
10:50pm 11.5ft 16s 9s 16 18 mph 1006mb 60f 58f
9:50pm 12ft 11s  -  16 18 mph 1006mb 60f 58f
7:50pm 14ft 8s 7s 13 18 mph 1005.6mb 60f 58f
6:50pm 14.5ft 9s 7s 22 27 mph 1005.4mb 60f 60f
5:50pm 14.5ft 9s 7s 22 29 mph 1005.7mb 60f 60f
4:50pm 14ft 10s 7s 25 31 mph 1005.8mb 60f 61f
3:50pm 13ft 9s 7s 25 31 mph 1005.6mb 60f 62f
2:50pm 12.5ft 9s 7s 22 29 mph 1005.6mb 60f 62f
1:50pm 12ft 11s 7s 25 29 mph 1005.8mb 60f 61f
12:50pm 11ft 10s 7s 25 31 mph 1006.2mb 60f 62f
11:50am 10.5ft 9s 7s 22 29 mph 1006.6mb 60f 62f
10:50am 10ft 10s 6s 25 29 mph 1006.3mb 60f 62f
9:50am 10ft 10s 6s 22 27 mph 1006.7mb 60f 61f
8:50am 9ft 11s 6s 22 27 mph 1006.4mb 60f 61f
7:50am 8ft 10s 6s 22 27 mph 1005.8mb 60f 61f
6:50am 7ft 9s 6s 20 25 mph 1006.2mb 60f 60f
5:50am 7.5ft 10s 6s 20 22 mph 1006.4mb 60f 60f
4:50am 7ft 11s 6s 20 22 mph 1006.8mb 60f 60f
3:50am 7ft 11s 6s 18 22 mph 1007.6mb 60f 60f
2:50am 7ft 11s 6s 20 22 mph 1008mb 60f 60f
1:50am 7ft 11s 6s 16 20 mph 1008.4mb 60f 60f
12:50am 7ft 9s 6s 18 20 mph 1008.6mb 60f 60f
Sat 10/18 11:50pm 7ft 9s 6s 18 22 mph 1008.8mb 60f 60f
10:50pm 7ft 10s 6s 20 27 mph 1009mb 60f 59f
9:50pm 7ft 10s 6s 18 25 mph 1009.4mb 60f 59f
8:50pm 7ft 11s 7s 16 20 mph 1010mb 60f 60f
7:50pm 7ft 10s 8s 11 13 mph 1010.4mb 60f 60f
6:50pm 7ft 10s 7s 7
mph
1010.6mb 61f 60f
5:50pm 7ft 10s 7s 11 16 mph 1011.2mb 61f 60f
4:50pm 7ft 11s 7s 11 16 mph 1011.8mb 61f 61f
3:50pm 7ft 10s 7s 13 16 mph 1012.2mb 61f 61f
2:50pm 8ft 11s 7s 13 18 mph 1012.5mb 60f 61f
1:50pm 7ft 11s 7s 11 13 mph 1013mb 60f 60f
12:50pm 7ft 11s 6s 16 18 mph 1013.3mb 60f 60f
11:50am 7.5ft 11s 7s 16 18 mph 1013.4mb 60f 60f
10:50am 8.5ft 11s 7s 16 18 mph 1013.5mb 61f 60f
9:50am 8ft 11s 7s 13 18 mph 1013.7mb 61f 60f
8:50am 9.5ft 10s 7s 13 16 mph 1013.3mb 61f 60f
7:50am 9ft 9s 7s 13 16 mph 1012.8mb 61f 60f
6:50am 9.5ft 9s 7s 11 16 mph 1012.7mb 61f 60f
5:50am 10ft 11s 7s 13 16 mph 1012.3mb 60f 60f
4:50am 11ft 11s 7s 16 18 mph 1012.1mb 60f 60f
3:50am 11ft 10s 7s 18 22 mph 1011.8mb 61f 60f
2:50am 11ft 11s 7s 18 22 mph 1011.8mb 61f 60f
1:50am 11.5ft 11s 8s 20 25 mph 1011.5mb 61f 60f
12:50am 11.5ft 10s 7s 20 25 mph 1011mb 61f 60f
Fri 10/17 11:50pm 11.5ft 10s 7s 20 27 mph 1010.8mb 60f 60f
10:50pm 11ft 11s 7s 20 25 mph 1010.3mb 60f 60f
9:50pm 11.5ft 11s 7s 20 25 mph 1009.7mb 60f 60f
8:50pm  -   -   -  22 27 mph 1009.2mb 60f 60f
7:50pm 13ft 11s 7s 25 31 mph 1008.3mb 60f 60f
6:50pm 16ft 11s 8s 22 29 mph 1007.8mb 60f 59f
5:50pm 15ft 11s 8s 22 29 mph 1007.6mb 60f 60f
4:50pm 17ft 11s 8s 25 34 mph 1007.2mb 60f 61f
3:50pm 16.5ft 11s 8s 27 34 mph 1006.8mb 60f 61f
2:50pm 17.5ft 11s 8s 27 34 mph 1006.2mb 60f 61f
1:50pm 18.5ft 10s 8s 29 36 mph 1005.7mb 60f 60f
12:50pm 17.5ft 12s 8s 29 36 mph 1005.5mb 60f 61f
11:50am 14.5ft 11s 7s 31 38 mph 1004.9mb 60f 60f
10:50am 13ft 11s 7s 29 36 mph 1004.6mb 60f 61f
9:50am 12.5ft 11s 7s 25 34 mph 1004.5mb 60f 61f
8:50am 11ft 11s 7s 27 34 mph 1004.2mb 60f 63f
7:50am 10ft 11s 7s 16 20 mph 1004.2mb 60f 61f
6:50am 9.5ft 11s 7s 20 27 mph 1004.2mb 60f 63f
5:50am 9.5ft 10s 7s 20 27 mph 1004.8mb 60f 63f
4:50am 9ft 8s 7s 13 20 mph 1005.7mb 60f 61f
3:50am 9ft 8s 7s 13 18 mph 1006.2mb 60f 60f
2:50am 8.5ft 8s 6s 18 22 mph 1006.8mb 60f 61f
1:50am 8ft 8s 6s 18 20 mph 1007.2mb 60f 60f
12:50am 8.5ft 8s 6s 18 22 mph 1007.7mb 60f 61f
Thu 10/16 11:50pm 8ft 11s 6s 13 18 mph 1008mb 60f 60f
10:50pm 7ft 7s 6s 18 22 mph 1007.9mb 60f 61f
9:50pm 6.5ft 8s 6s 18 22 mph 1008mb 60f 61f
8:50pm 6.5ft 11s 6s 18 20 mph 1008.8mb 60f 60f
7:50pm 6.5ft 11s 7s 18 22 mph 1009.3mb 60f 61f
6:50pm 7ft 8s 6s 16 18 mph 1009.9mb 60f 60f
5:50pm 7.5ft 12s 7s 16 20 mph 1010.5mb 60f 61f
4:50pm 8ft 11s 7s 16 20 mph 1010.9mb 60f 61f
3:50pm 9ft 12s 7s 20 25 mph 1011.2mb 60f 62f
2:50pm 8ft 12s 6s 18 22 mph 1011.9mb 61f 61f
1:50pm 9ft 13s 7s 16 20 mph 1012.1mb 61f 61f
12:50pm 10ft 13s 7s 18 22 mph 1012.7mb 61f 61f
11:50am 10ft 13s 7s 18 25 mph 1013.2mb 61f 60f